sensor_id;sensor_type;location;lat;lon;timestamp;P1;durP1;ratioP1;P2;durP2;ratioP2
78072;SDS011;67281;48.770;11.440;2023-02-25T00:00:37;2.13;;;1.93;;
78072;SDS011;67281;48.770;11.440;2023-02-25T00:03:10;1.80;;;1.60;;
78072;SDS011;67281;48.770;11.440;2023-02-25T00:05:48;2.73;;;1.90;;
78072;SDS011;67281;48.770;11.440;2023-02-25T00:08:22;2.60;;;2.40;;
78072;SDS011;67281;48.770;11.440;2023-02-25T00:11:04;3.67;;;1.83;;
78072;SDS011;67281;48.770;11.440;2023-02-25T00:13:41;1.90;;;1.80;;
78072;SDS011;67281;48.770;11.440;2023-02-25T00:16:18;2.30;;;2.10;;
78072;SDS011;67281;48.770;11.440;2023-02-25T00:18:58;3.60;;;2.43;;
78072;SDS011;67281;48.770;11.440;2023-02-25T00:24:51;2.67;;;2.40;;
78072;SDS011;67281;48.770;11.440;2023-02-25T00:27:34;2.73;;;2.47;;
78072;SDS011;67281;48.770;11.440;2023-02-25T00:30:25;3.20;;;2.30;;
78072;SDS011;67281;48.770;11.440;2023-02-25T00:33:20;3.53;;;2.20;;
78072;SDS011;67281;48.770;11.440;2023-02-25T00:36:08;3.10;;;2.40;;
78072;SDS011;67281;48.770;11.440;2023-02-25T00:39:09;2.23;;;2.03;;
78072;SDS011;67281;48.770;11.440;2023-02-25T00:41:50;2.57;;;2.13;;
78072;SDS011;67281;48.770;11.440;2023-02-25T00:44:18;2.67;;;2.30;;
78072;SDS011;67281;48.770;11.440;2023-02-25T00:46:48;2.97;;;2.50;;
78072;SDS011;67281;48.770;11.440;2023-02-25T00:49:15;2.90;;;2.60;;
78072;SDS011;67281;48.770;11.440;2023-02-25T00:51:57;2.80;;;2.60;;
78072;SDS011;67281;48.770;11.440;2023-02-25T00:54:26;4.03;;;2.80;;
78072;SDS011;67281;48.770;11.440;2023-02-25T00:57:15;5.53;;;2.70;;
78072;SDS011;67281;48.770;11.440;2023-02-25T00:59:42;3.03;;;2.73;;
78072;SDS011;67281;48.770;11.440;2023-02-25T01:02:09;5.20;;;2.70;;
78072;SDS011;67281;48.770;11.440;2023-02-25T01:04:39;4.20;;;3.17;;
78072;SDS011;67281;48.770;11.440;2023-02-25T01:07:06;4.20;;;2.80;;
78072;SDS011;67281;48.770;11.440;2023-02-25T01:09:33;3.33;;;2.90;;
78072;SDS011;67281;48.770;11.440;2023-02-25T01:12:00;2.77;;;2.20;;
78072;SDS011;67281;48.770;11.440;2023-02-25T01:14:30;3.57;;;2.73;;
78072;SDS011;67281;48.770;11.440;2023-02-25T01:16:57;3.10;;;2.67;;
78072;SDS011;67281;48.770;11.440;2023-02-25T01:19:27;2.97;;;2.67;;
78072;SDS011;67281;48.770;11.440;2023-02-25T01:21:55;8.27;;;3.23;;
78072;SDS011;67281;48.770;11.440;2023-02-25T01:24:25;3.40;;;3.10;;
78072;SDS011;67281;48.770;11.440;2023-02-25T01:26:55;4.63;;;3.07;;
78072;SDS011;67281;48.770;11.440;2023-02-25T01:29:28;3.80;;;3.50;;
78072;SDS011;67281;48.770;11.440;2023-02-25T01:31:58;4.97;;;3.63;;
78072;SDS011;67281;48.770;11.440;2023-02-25T01:34:30;3.67;;;3.30;;
78072;SDS011;67281;48.770;11.440;2023-02-25T01:36:58;4.63;;;3.33;;
78072;SDS011;67281;48.770;11.440;2023-02-25T01:39:26;3.63;;;3.33;;
78072;SDS011;67281;48.770;11.440;2023-02-25T01:41:54;3.50;;;3.13;;
78072;SDS011;67281;48.770;11.440;2023-02-25T01:44:29;4.43;;;3.43;;
78072;SDS011;67281;48.770;11.440;2023-02-25T01:46:58;5.03;;;4.23;;
78072;SDS011;67281;48.770;11.440;2023-02-25T01:52:14;4.07;;;3.63;;
78072;SDS011;67281;48.770;11.440;2023-02-25T01:54:46;3.87;;;3.47;;
78072;SDS011;67281;48.770;11.440;2023-02-25T01:57:17;5.13;;;3.37;;
78072;SDS011;67281;48.770;11.440;2023-02-25T01:59:44;4.17;;;3.07;;
78072;SDS011;67281;48.770;11.440;2023-02-25T02:02:14;3.77;;;3.47;;
78072;SDS011;67281;48.770;11.440;2023-02-25T02:04:44;4.07;;;3.67;;
78072;SDS011;67281;48.770;11.440;2023-02-25T02:07:16;4.33;;;3.70;;
78072;SDS011;67281;48.770;11.440;2023-02-25T02:09:44;4.23;;;3.70;;
78072;SDS011;67281;48.770;11.440;2023-02-25T02:12:23;4.73;;;3.90;;
78072;SDS011;67281;48.770;11.440;2023-02-25T02:14:53;5.93;;;3.80;;
78072;SDS011;67281;48.770;11.440;2023-02-25T02:17:30;4.60;;;3.90;;
78072;SDS011;67281;48.770;11.440;2023-02-25T02:20:06;4.00;;;3.60;;
78072;SDS011;67281;48.770;11.440;2023-02-25T02:23:11;4.33;;;3.90;;
78072;SDS011;67281;48.770;11.440;2023-02-25T02:31:40;4.10;;;3.70;;
78072;SDS011;67281;48.770;11.440;2023-02-25T02:42:36;4.47;;;3.87;;
78072;SDS011;67281;48.770;11.440;2023-02-25T02:45:21;4.03;;;3.63;;
78072;SDS011;67281;48.770;11.440;2023-02-25T02:47:59;4.47;;;4.07;;
78072;SDS011;67281;48.770;11.440;2023-02-25T02:50:37;5.93;;;4.70;;
78072;SDS011;67281;48.770;11.440;2023-02-25T02:53:12;4.80;;;4.40;;
78072;SDS011;67281;48.770;11.440;2023-02-25T02:55:48;4.87;;;4.30;;
78072;SDS011;67281;48.770;11.440;2023-02-25T03:01:11;4.90;;;4.37;;
78072;SDS011;67281;48.770;11.440;2023-02-25T03:03:46;5.47;;;4.73;;
78072;SDS011;67281;48.770;11.440;2023-02-25T03:06:18;6.17;;;4.60;;
78072;SDS011;67281;48.770;11.440;2023-02-25T03:08:51;5.03;;;3.50;;
78072;SDS011;67281;48.770;11.440;2023-02-25T03:11:22;4.47;;;3.63;;
78072;SDS011;67281;48.770;11.440;2023-02-25T03:13:49;3.33;;;2.63;;
78072;SDS011;67281;48.770;11.440;2023-02-25T03:16:19;2.63;;;2.37;;
78072;SDS011;67281;48.770;11.440;2023-02-25T03:18:56;3.13;;;2.47;;
78072;SDS011;67281;48.770;11.440;2023-02-25T03:21:31;3.37;;;3.00;;
78072;SDS011;67281;48.770;11.440;2023-02-25T03:24:04;1.40;;;1.30;;
78072;SDS011;67281;48.770;11.440;2023-02-25T03:26:36;3.47;;;2.77;;
78072;SDS011;67281;48.770;11.440;2023-02-25T03:29:03;4.37;;;3.27;;
78072;SDS011;67281;48.770;11.440;2023-02-25T03:32:02;3.23;;;2.73;;
78072;SDS011;67281;48.770;11.440;2023-02-25T03:34:36;3.03;;;2.60;;
78072;SDS011;67281;48.770;11.440;2023-02-25T03:37:21;3.33;;;3.03;;
78072;SDS011;67281;48.770;11.440;2023-02-25T03:39:53;3.53;;;3.20;;
78072;SDS011;67281;48.770;11.440;2023-02-25T03:42:32;3.03;;;2.70;;
78072;SDS011;67281;48.770;11.440;2023-02-25T03:45:02;3.27;;;2.83;;
78072;SDS011;67281;48.770;11.440;2023-02-25T03:47:36;3.10;;;2.80;;
78072;SDS011;67281;48.770;11.440;2023-02-25T03:50:06;4.10;;;2.97;;
78072;SDS011;67281;48.770;11.440;2023-02-25T03:52:45;3.87;;;2.40;;
78072;SDS011;67281;48.770;11.440;2023-02-25T03:55:16;4.93;;;2.97;;
78072;SDS011;67281;48.770;11.440;2023-02-25T03:57:46;4.53;;;2.60;;
78072;SDS011;67281;48.770;11.440;2023-02-25T04:00:19;2.60;;;2.40;;
78072;SDS011;67281;48.770;11.440;2023-02-25T04:02:55;3.20;;;2.90;;
78072;SDS011;67281;48.770;11.440;2023-02-25T04:05:25;3.23;;;2.50;;
78072;SDS011;67281;48.770;11.440;2023-02-25T04:07:53;4.97;;;2.83;;
78072;SDS011;67281;48.770;11.440;2023-02-25T04:10:21;3.87;;;2.83;;
78072;SDS011;67281;48.770;11.440;2023-02-25T04:12:49;3.83;;;2.43;;
78072;SDS011;67281;48.770;11.440;2023-02-25T04:15:19;2.53;;;2.30;;
78072;SDS011;67281;48.770;11.440;2023-02-25T04:17:46;2.27;;;2.03;;
78072;SDS011;67281;48.770;11.440;2023-02-25T04:20:16;3.13;;;2.27;;
78072;SDS011;67281;48.770;11.440;2023-02-25T04:22:46;2.70;;;2.23;;
78072;SDS011;67281;48.770;11.440;2023-02-25T04:25:17;4.00;;;2.60;;
78072;SDS011;67281;48.770;11.440;2023-02-25T04:27:44;4.03;;;2.87;;
78072;SDS011;67281;48.770;11.440;2023-02-25T04:30:13;3.00;;;2.33;;
78072;SDS011;67281;48.770;11.440;2023-02-25T04:32:45;3.13;;;2.30;;
78072;SDS011;67281;48.770;11.440;2023-02-25T04:35:12;3.10;;;2.27;;
78072;SDS011;67281;48.770;11.440;2023-02-25T04:37:40;3.10;;;2.30;;
78072;SDS011;67281;48.770;11.440;2023-02-25T04:40:17;2.50;;;1.90;;
78072;SDS011;67281;48.770;11.440;2023-02-25T04:42:46;3.00;;;2.10;;
78072;SDS011;67281;48.770;11.440;2023-02-25T04:45:16;4.57;;;2.30;;
78072;SDS011;67281;48.770;11.440;2023-02-25T04:47:53;2.97;;;2.40;;
78072;SDS011;67281;48.770;11.440;2023-02-25T04:50:23;2.63;;;2.13;;
78072;SDS011;67281;48.770;11.440;2023-02-25T04:52:54;2.73;;;2.00;;
78072;SDS011;67281;48.770;11.440;2023-02-25T04:55:23;3.47;;;2.30;;
78072;SDS011;67281;48.770;11.440;2023-02-25T04:57:58;3.83;;;2.17;;
78072;SDS011;67281;48.770;11.440;2023-02-25T05:00:25;2.50;;;2.00;;
78072;SDS011;67281;48.770;11.440;2023-02-25T05:02:53;5.13;;;2.33;;
78072;SDS011;67281;48.770;11.440;2023-02-25T05:05:20;2.93;;;1.93;;
78072;SDS011;67281;48.770;11.440;2023-02-25T05:07:47;3.00;;;2.13;;
78072;SDS011;67281;48.770;11.440;2023-02-25T05:10:17;3.17;;;2.20;;
78072;SDS011;67281;48.770;11.440;2023-02-25T05:12:44;5.60;;;2.43;;
78072;SDS011;67281;48.770;11.440;2023-02-25T05:15:11;5.20;;;2.67;;
78072;SDS011;67281;48.770;11.440;2023-02-25T05:17:41;3.80;;;2.53;;
78072;SDS011;67281;48.770;11.440;2023-02-25T05:20:08;3.80;;;2.40;;
78072;SDS011;67281;48.770;11.440;2023-02-25T05:22:39;5.00;;;2.40;;
78072;SDS011;67281;48.770;11.440;2023-02-25T05:25:11;5.30;;;3.03;;
78072;SDS011;67281;48.770;11.440;2023-02-25T05:27:38;4.07;;;2.83;;
78072;SDS011;67281;48.770;11.440;2023-02-25T05:30:06;4.23;;;2.50;;
78072;SDS011;67281;48.770;11.440;2023-02-25T05:32:35;5.87;;;2.53;;
78072;SDS011;67281;48.770;11.440;2023-02-25T05:35:02;8.13;;;2.53;;
78072;SDS011;67281;48.770;11.440;2023-02-25T05:37:30;5.10;;;2.70;;
78072;SDS011;67281;48.770;11.440;2023-02-25T05:39:57;3.97;;;2.47;;
78072;SDS011;67281;48.770;11.440;2023-02-25T05:42:24;5.93;;;2.33;;
78072;SDS011;67281;48.770;11.440;2023-02-25T05:44:51;3.77;;;2.50;;
78072;SDS011;67281;48.770;11.440;2023-02-25T05:47:18;6.70;;;2.80;;
78072;SDS011;67281;48.770;11.440;2023-02-25T05:49:45;4.77;;;2.50;;
78072;SDS011;67281;48.770;11.440;2023-02-25T05:52:13;3.37;;;2.57;;
78072;SDS011;67281;48.770;11.440;2023-02-25T05:54:40;4.83;;;2.57;;
78072;SDS011;67281;48.770;11.440;2023-02-25T05:57:07;3.47;;;2.50;;
78072;SDS011;67281;48.770;11.440;2023-02-25T05:59:33;4.03;;;2.13;;
78072;SDS011;67281;48.770;11.440;2023-02-25T06:02:02;4.70;;;2.60;;
78072;SDS011;67281;48.770;11.440;2023-02-25T06:04:29;3.80;;;2.63;;
78072;SDS011;67281;48.770;11.440;2023-02-25T06:06:56;6.17;;;2.43;;
78072;SDS011;67281;48.770;11.440;2023-02-25T06:09:23;4.53;;;2.50;;
78072;SDS011;67281;48.770;11.440;2023-02-25T06:11:50;3.20;;;2.40;;
78072;SDS011;67281;48.770;11.440;2023-02-25T06:14:17;6.23;;;2.60;;
78072;SDS011;67281;48.770;11.440;2023-02-25T06:16:43;4.50;;;2.30;;
78072;SDS011;67281;48.770;11.440;2023-02-25T06:19:10;5.53;;;2.67;;
78072;SDS011;67281;48.770;11.440;2023-02-25T06:21:38;4.03;;;3.07;;
78072;SDS011;67281;48.770;11.440;2023-02-25T06:24:05;4.77;;;2.43;;
78072;SDS011;67281;48.770;11.440;2023-02-25T06:26:32;4.80;;;2.30;;
78072;SDS011;67281;48.770;11.440;2023-02-25T06:29:00;5.43;;;2.93;;
78072;SDS011;67281;48.770;11.440;2023-02-25T06:31:27;5.87;;;2.30;;
78072;SDS011;67281;48.770;11.440;2023-02-25T06:33:54;3.40;;;2.53;;
78072;SDS011;67281;48.770;11.440;2023-02-25T06:36:21;4.13;;;2.37;;
78072;SDS011;67281;48.770;11.440;2023-02-25T06:38:48;4.53;;;2.40;;
78072;SDS011;67281;48.770;11.440;2023-02-25T06:41:16;5.43;;;2.80;;
78072;SDS011;67281;48.770;11.440;2023-02-25T06:43:45;5.07;;;2.53;;
78072;SDS011;67281;48.770;11.440;2023-02-25T06:46:21;4.97;;;2.80;;
78072;SDS011;67281;48.770;11.440;2023-02-25T06:48:50;6.20;;;2.80;;
78072;SDS011;67281;48.770;11.440;2023-02-25T06:51:18;5.57;;;3.00;;
78072;SDS011;67281;48.770;11.440;2023-02-25T06:53:45;7.23;;;3.33;;
78072;SDS011;67281;48.770;11.440;2023-02-25T06:56:13;3.33;;;2.37;;
78072;SDS011;67281;48.770;11.440;2023-02-25T06:58:41;7.03;;;3.23;;
78072;SDS011;67281;48.770;11.440;2023-02-25T07:01:09;3.87;;;2.87;;
78072;SDS011;67281;48.770;11.440;2023-02-25T07:03:38;5.73;;;3.13;;
78072;SDS011;67281;48.770;11.440;2023-02-25T07:06:05;5.03;;;2.60;;
78072;SDS011;67281;48.770;11.440;2023-02-25T07:08:34;4.33;;;2.43;;
78072;SDS011;67281;48.770;11.440;2023-02-25T07:11:43;5.67;;;2.70;;
78072;SDS011;67281;48.770;11.440;2023-02-25T07:13:54;7.07;;;3.33;;
78072;SDS011;67281;48.770;11.440;2023-02-25T07:16:22;3.97;;;3.20;;
78072;SDS011;67281;48.770;11.440;2023-02-25T07:18:49;3.63;;;3.00;;
78072;SDS011;67281;48.770;11.440;2023-02-25T07:21:16;5.23;;;2.70;;
78072;SDS011;67281;48.770;11.440;2023-02-25T07:23:49;7.30;;;3.10;;
78072;SDS011;67281;48.770;11.440;2023-02-25T07:26:16;4.47;;;2.70;;
78072;SDS011;67281;48.770;11.440;2023-02-25T07:28:43;4.47;;;2.63;;
78072;SDS011;67281;48.770;11.440;2023-02-25T07:31:13;6.10;;;3.43;;
78072;SDS011;67281;48.770;11.440;2023-02-25T07:33:47;6.90;;;3.10;;
78072;SDS011;67281;48.770;11.440;2023-02-25T07:36:14;6.73;;;3.27;;
78072;SDS011;67281;48.770;11.440;2023-02-25T07:38:41;5.23;;;3.30;;
78072;SDS011;67281;48.770;11.440;2023-02-25T07:41:09;3.93;;;3.20;;
78072;SDS011;67281;48.770;11.440;2023-02-25T07:43:39;7.27;;;3.03;;
78072;SDS011;67281;48.770;11.440;2023-02-25T07:46:06;5.23;;;3.13;;
78072;SDS011;67281;48.770;11.440;2023-02-25T07:48:33;4.03;;;2.97;;
78072;SDS011;67281;48.770;11.440;2023-02-25T07:51:07;4.47;;;3.00;;
78072;SDS011;67281;48.770;11.440;2023-02-25T07:53:39;5.30;;;3.00;;
78072;SDS011;67281;48.770;11.440;2023-02-25T07:56:06;3.90;;;2.63;;
78072;SDS011;67281;48.770;11.440;2023-02-25T07:58:34;5.13;;;3.07;;
78072;SDS011;67281;48.770;11.440;2023-02-25T08:01:06;4.57;;;3.37;;
78072;SDS011;67281;48.770;11.440;2023-02-25T08:03:52;6.77;;;3.07;;
78072;SDS011;67281;48.770;11.440;2023-02-25T08:06:20;3.83;;;2.87;;
78072;SDS011;67281;48.770;11.440;2023-02-25T08:08:47;3.90;;;2.80;;
78072;SDS011;67281;48.770;11.440;2023-02-25T08:11:18;6.80;;;3.30;;
78072;SDS011;67281;48.770;11.440;2023-02-25T08:13:45;3.77;;;2.73;;
78072;SDS011;67281;48.770;11.440;2023-02-25T08:16:13;4.33;;;2.97;;
78072;SDS011;67281;48.770;11.440;2023-02-25T08:18:42;5.77;;;2.57;;
78072;SDS011;67281;48.770;11.440;2023-02-25T08:21:10;6.77;;;3.23;;
78072;SDS011;67281;48.770;11.440;2023-02-25T08:23:37;5.60;;;3.00;;
78072;SDS011;67281;48.770;11.440;2023-02-25T08:26:05;3.80;;;2.70;;
78072;SDS011;67281;48.770;11.440;2023-02-25T08:28:32;6.67;;;2.73;;
78072;SDS011;67281;48.770;11.440;2023-02-25T08:31:02;3.93;;;2.40;;
78072;SDS011;67281;48.770;11.440;2023-02-25T08:33:31;3.30;;;2.63;;
78072;SDS011;67281;48.770;11.440;2023-02-25T08:36:05;3.03;;;2.33;;
78072;SDS011;67281;48.770;11.440;2023-02-25T08:38:35;3.47;;;2.10;;
78072;SDS011;67281;48.770;11.440;2023-02-25T08:41:03;4.23;;;2.40;;
78072;SDS011;67281;48.770;11.440;2023-02-25T08:43:31;4.30;;;2.20;;
78072;SDS011;67281;48.770;11.440;2023-02-25T08:46:02;2.47;;;2.00;;
78072;SDS011;67281;48.770;11.440;2023-02-25T08:48:29;5.63;;;2.20;;
78072;SDS011;67281;48.770;11.440;2023-02-25T08:50:57;5.63;;;2.20;;
78072;SDS011;67281;48.770;11.440;2023-02-25T08:53:28;6.83;;;2.07;;
78072;SDS011;67281;48.770;11.440;2023-02-25T08:55:54;3.37;;;1.83;;
78072;SDS011;67281;48.770;11.440;2023-02-25T08:58:21;6.97;;;2.23;;
78072;SDS011;67281;48.770;11.440;2023-02-25T09:00:48;4.70;;;2.47;;
78072;SDS011;67281;48.770;11.440;2023-02-25T09:03:17;2.20;;;1.93;;
78072;SDS011;67281;48.770;11.440;2023-02-25T09:05:49;2.47;;;1.50;;
78072;SDS011;67281;48.770;11.440;2023-02-25T09:08:20;3.20;;;1.70;;
78072;SDS011;67281;48.770;11.440;2023-02-25T09:10:53;3.77;;;1.90;;
78072;SDS011;67281;48.770;11.440;2023-02-25T09:13:20;2.50;;;1.80;;
78072;SDS011;67281;48.770;11.440;2023-02-25T09:15:56;4.20;;;2.27;;
78072;SDS011;67281;48.770;11.440;2023-02-25T09:18:24;5.83;;;2.10;;
78072;SDS011;67281;48.770;11.440;2023-02-25T09:20:51;4.43;;;1.73;;
78072;SDS011;67281;48.770;11.440;2023-02-25T09:23:18;4.93;;;1.97;;
78072;SDS011;67281;48.770;11.440;2023-02-25T09:25:45;3.67;;;1.20;;
78072;SDS011;67281;48.770;11.440;2023-02-25T09:28:13;3.20;;;1.87;;
78072;SDS011;67281;48.770;11.440;2023-02-25T09:30:45;3.73;;;1.63;;
78072;SDS011;67281;48.770;11.440;2023-02-25T09:33:15;3.20;;;1.60;;
78072;SDS011;67281;48.770;11.440;2023-02-25T09:35:42;2.47;;;1.37;;
78072;SDS011;67281;48.770;11.440;2023-02-25T09:38:10;12.47;;;2.47;;
78072;SDS011;67281;48.770;11.440;2023-02-25T09:40:39;5.33;;;1.80;;
78072;SDS011;67281;48.770;11.440;2023-02-25T09:43:27;3.87;;;1.33;;
78072;SDS011;67281;48.770;11.440;2023-02-25T09:46:05;3.43;;;1.47;;
78072;SDS011;67281;48.770;11.440;2023-02-25T09:48:58;1.83;;;1.30;;
78072;SDS011;67281;48.770;11.440;2023-02-25T09:51:31;2.47;;;1.33;;
78072;SDS011;67281;48.770;11.440;2023-02-25T09:57:12;3.13;;;1.43;;
78072;SDS011;67281;48.770;11.440;2023-02-25T09:59:45;4.23;;;1.33;;
78072;SDS011;67281;48.770;11.440;2023-02-25T10:02:29;3.43;;;1.50;;
78072;SDS011;67281;48.770;11.440;2023-02-25T10:05:17;3.60;;;1.20;;
78072;SDS011;67281;48.770;11.440;2023-02-25T10:16:02;1.63;;;1.40;;
78072;SDS011;67281;48.770;11.440;2023-02-25T10:25:12;5.03;;;1.47;;
78072;SDS011;67281;48.770;11.440;2023-02-25T10:27:51;3.23;;;1.70;;
78072;SDS011;67281;48.770;11.440;2023-02-25T10:30:36;2.83;;;1.70;;
78072;SDS011;67281;48.770;11.440;2023-02-25T10:33:17;3.70;;;1.63;;
78072;SDS011;67281;48.770;11.440;2023-02-25T10:35:47;6.20;;;2.23;;
78072;SDS011;67281;48.770;11.440;2023-02-25T10:38:19;3.57;;;1.80;;
78072;SDS011;67281;48.770;11.440;2023-02-25T10:40:46;2.57;;;1.30;;
78072;SDS011;67281;48.770;11.440;2023-02-25T10:43:20;4.50;;;1.00;;
78072;SDS011;67281;48.770;11.440;2023-02-25T10:45:58;2.70;;;1.70;;
78072;SDS011;67281;48.770;11.440;2023-02-25T10:48:30;3.67;;;2.30;;
78072;SDS011;67281;48.770;11.440;2023-02-25T10:51:33;3.07;;;1.90;;
78072;SDS011;67281;48.770;11.440;2023-02-25T10:56:25;4.83;;;1.70;;
78072;SDS011;67281;48.770;11.440;2023-02-25T10:58:58;2.63;;;1.83;;
78072;SDS011;67281;48.770;11.440;2023-02-25T11:01:33;1.93;;;1.47;;
78072;SDS011;67281;48.770;11.440;2023-02-25T11:04:07;3.53;;;1.80;;
78072;SDS011;67281;48.770;11.440;2023-02-25T11:06:38;4.07;;;1.80;;
78072;SDS011;67281;48.770;11.440;2023-02-25T11:12:08;1.97;;;1.60;;
78072;SDS011;67281;48.770;11.440;2023-02-25T11:14:47;2.93;;;1.70;;
78072;SDS011;67281;48.770;11.440;2023-02-25T11:17:20;3.30;;;1.50;;
78072;SDS011;67281;48.770;11.440;2023-02-25T11:19:59;2.57;;;1.67;;
78072;SDS011;67281;48.770;11.440;2023-02-25T11:22:33;2.10;;;1.33;;
78072;SDS011;67281;48.770;11.440;2023-02-25T11:25:15;2.90;;;1.40;;
78072;SDS011;67281;48.770;11.440;2023-02-25T11:27:46;1.97;;;1.57;;
78072;SDS011;67281;48.770;11.440;2023-02-25T11:30:23;4.40;;;1.50;;
78072;SDS011;67281;48.770;11.440;2023-02-25T11:32:57;3.47;;;1.93;;
78072;SDS011;67281;48.770;11.440;2023-02-25T11:35:26;5.13;;;2.40;;
78072;SDS011;67281;48.770;11.440;2023-02-25T11:38:15;6.63;;;2.13;;
78072;SDS011;67281;48.770;11.440;2023-02-25T11:40:51;4.90;;;2.13;;
78072;SDS011;67281;48.770;11.440;2023-02-25T11:43:21;4.57;;;2.33;;
78072;SDS011;67281;48.770;11.440;2023-02-25T11:45:59;3.80;;;2.53;;
78072;SDS011;67281;48.770;11.440;2023-02-25T11:54:07;3.63;;;1.80;;
78072;SDS011;67281;48.770;11.440;2023-02-25T11:56:54;3.33;;;2.00;;
78072;SDS011;67281;48.770;11.440;2023-02-25T11:59:38;1.90;;;1.70;;
78072;SDS011;67281;48.770;11.440;2023-02-25T12:02:25;4.57;;;1.50;;
78072;SDS011;67281;48.770;11.440;2023-02-25T12:07:57;1.73;;;1.47;;
78072;SDS011;67281;48.770;11.440;2023-02-25T12:10:53;4.37;;;1.90;;
78072;SDS011;67281;48.770;11.440;2023-02-25T12:16:55;2.73;;;1.77;;
78072;SDS011;67281;48.770;11.440;2023-02-25T12:19:39;2.80;;;1.50;;
78072;SDS011;67281;48.770;11.440;2023-02-25T12:22:35;2.53;;;2.00;;
78072;SDS011;67281;48.770;11.440;2023-02-25T12:25:40;2.27;;;1.50;;
78072;SDS011;67281;48.770;11.440;2023-02-25T12:28:35;2.40;;;1.43;;
78072;SDS011;67281;48.770;11.440;2023-02-25T12:34:10;5.27;;;1.80;;
78072;SDS011;67281;48.770;11.440;2023-02-25T12:40:02;3.30;;;1.70;;
78072;SDS011;67281;48.770;11.440;2023-02-25T12:45:56;4.57;;;1.70;;
78072;SDS011;67281;48.770;11.440;2023-02-25T12:56:47;2.07;;;1.60;;
78072;SDS011;67281;48.770;11.440;2023-02-25T13:10:45;1.87;;;1.30;;
78072;SDS011;67281;48.770;11.440;2023-02-25T13:24:29;2.10;;;1.40;;
78072;SDS011;67281;48.770;11.440;2023-02-25T13:38:17;3.37;;;1.80;;
78072;SDS011;67281;48.770;11.440;2023-02-25T13:41:35;3.40;;;1.50;;
78072;SDS011;67281;48.770;11.440;2023-02-25T13:46:51;2.97;;;1.70;;
78072;SDS011;67281;48.770;11.440;2023-02-25T13:49:56;2.37;;;1.50;;
78072;SDS011;67281;48.770;11.440;2023-02-25T14:15:36;2.40;;;1.60;;
78072;SDS011;67281;48.770;11.440;2023-02-25T14:24:10;1.17;;;1.07;;
78072;SDS011;67281;48.770;11.440;2023-02-25T14:30:00;2.30;;;1.70;;
78072;SDS011;67281;48.770;11.440;2023-02-25T14:35:23;2.10;;;1.60;;
78072;SDS011;67281;48.770;11.440;2023-02-25T14:38:05;3.73;;;1.80;;
78072;SDS011;67281;48.770;11.440;2023-02-25T14:40:45;3.37;;;2.07;;
78072;SDS011;67281;48.770;11.440;2023-02-25T14:43:39;5.30;;;1.67;;
78072;SDS011;67281;48.770;11.440;2023-02-25T14:46:09;3.00;;;2.07;;
78072;SDS011;67281;48.770;11.440;2023-02-25T14:51:28;2.13;;;1.60;;
78072;SDS011;67281;48.770;11.440;2023-02-25T15:12:58;1.87;;;1.30;;
78072;SDS011;67281;48.770;11.440;2023-02-25T15:18:51;1.60;;;1.27;;
78072;SDS011;67281;48.770;11.440;2023-02-25T15:24:03;1.37;;;1.10;;
78072;SDS011;67281;48.770;11.440;2023-02-25T15:26:43;3.23;;;1.20;;
78072;SDS011;67281;48.770;11.440;2023-02-25T15:29:19;1.83;;;1.20;;
78072;SDS011;67281;48.770;11.440;2023-02-25T15:32:10;2.00;;;1.30;;
78072;SDS011;67281;48.770;11.440;2023-02-25T15:34:58;1.47;;;1.20;;
78072;SDS011;67281;48.770;11.440;2023-02-25T15:55:47;1.17;;;1.07;;
78072;SDS011;67281;48.770;11.440;2023-02-25T16:09:09;2.00;;;1.20;;
78072;SDS011;67281;48.770;11.440;2023-02-25T16:11:41;1.40;;;1.23;;
78072;SDS011;67281;48.770;11.440;2023-02-25T16:14:18;1.37;;;1.27;;
78072;SDS011;67281;48.770;11.440;2023-02-25T16:16:50;1.30;;;1.20;;
78072;SDS011;67281;48.770;11.440;2023-02-25T16:19:23;1.43;;;1.33;;
78072;SDS011;67281;48.770;11.440;2023-02-25T16:21:58;1.60;;;1.50;;
78072;SDS011;67281;48.770;11.440;2023-02-25T16:24:26;1.97;;;1.87;;
78072;SDS011;67281;48.770;11.440;2023-02-25T16:32:28;3.13;;;2.47;;
78072;SDS011;67281;48.770;11.440;2023-02-25T16:35:13;2.10;;;1.87;;
78072;SDS011;67281;48.770;11.440;2023-02-25T16:40:57;1.80;;;1.70;;
78072;SDS011;67281;48.770;11.440;2023-02-25T16:43:27;2.47;;;1.57;;
78072;SDS011;67281;48.770;11.440;2023-02-25T16:45:58;1.40;;;1.30;;
78072;SDS011;67281;48.770;11.440;2023-02-25T16:48:36;2.23;;;1.93;;
78072;SDS011;67281;48.770;11.440;2023-02-25T16:51:10;1.80;;;1.70;;
78072;SDS011;67281;48.770;11.440;2023-02-25T16:53:44;2.40;;;2.10;;
78072;SDS011;67281;48.770;11.440;2023-02-25T16:56:14;2.47;;;1.90;;
78072;SDS011;67281;48.770;11.440;2023-02-25T17:01:45;2.07;;;1.80;;
78072;SDS011;67281;48.770;11.440;2023-02-25T17:04:26;1.97;;;1.77;;
78072;SDS011;67281;48.770;11.440;2023-02-25T17:09:51;2.40;;;1.67;;
78072;SDS011;67281;48.770;11.440;2023-02-25T17:15:10;2.50;;;1.83;;
78072;SDS011;67281;48.770;11.440;2023-02-25T17:17:48;2.50;;;1.83;;
78072;SDS011;67281;48.770;11.440;2023-02-25T17:20:20;2.50;;;2.00;;
78072;SDS011;67281;48.770;11.440;2023-02-25T17:22:50;2.80;;;2.00;;
78072;SDS011;67281;48.770;11.440;2023-02-25T17:25:18;2.10;;;1.90;;
78072;SDS011;67281;48.770;11.440;2023-02-25T17:27:47;5.30;;;1.90;;
78072;SDS011;67281;48.770;11.440;2023-02-25T17:33:01;2.27;;;2.07;;
78072;SDS011;67281;48.770;11.440;2023-02-25T17:35:28;2.30;;;2.10;;
78072;SDS011;67281;48.770;11.440;2023-02-25T17:37:56;2.00;;;1.80;;
78072;SDS011;67281;48.770;11.440;2023-02-25T17:40:25;2.40;;;2.20;;
78072;SDS011;67281;48.770;11.440;2023-02-25T17:43:13;3.10;;;2.10;;
78072;SDS011;67281;48.770;11.440;2023-02-25T17:46:22;3.90;;;2.70;;
78072;SDS011;67281;48.770;11.440;2023-02-25T17:48:52;3.43;;;2.97;;
78072;SDS011;67281;48.770;11.440;2023-02-25T17:51:32;3.70;;;3.00;;
78072;SDS011;67281;48.770;11.440;2023-02-25T17:54:03;4.00;;;2.77;;
78072;SDS011;67281;48.770;11.440;2023-02-25T17:56:39;3.67;;;3.00;;
78072;SDS011;67281;48.770;11.440;2023-02-25T17:59:10;2.30;;;2.10;;
78072;SDS011;67281;48.770;11.440;2023-02-25T18:01:56;5.00;;;2.90;;
78072;SDS011;67281;48.770;11.440;2023-02-25T18:04:32;3.00;;;2.67;;
78072;SDS011;67281;48.770;11.440;2023-02-25T18:07:37;2.97;;;2.43;;
78072;SDS011;67281;48.770;11.440;2023-02-25T18:10:06;3.13;;;2.80;;
78072;SDS011;67281;48.770;11.440;2023-02-25T18:13:13;3.40;;;3.00;;
78072;SDS011;67281;48.770;11.440;2023-02-25T18:15:47;4.03;;;2.50;;
78072;SDS011;67281;48.770;11.440;2023-02-25T18:18:34;3.00;;;2.70;;
78072;SDS011;67281;48.770;11.440;2023-02-25T18:21:01;3.20;;;2.90;;
78072;SDS011;67281;48.770;11.440;2023-02-25T18:23:28;2.50;;;2.30;;
78072;SDS011;67281;48.770;11.440;2023-02-25T18:26:11;2.57;;;2.20;;
78072;SDS011;67281;48.770;11.440;2023-02-25T18:28:41;2.33;;;2.07;;
78072;SDS011;67281;48.770;11.440;2023-02-25T18:31:08;2.63;;;2.10;;
78072;SDS011;67281;48.770;11.440;2023-02-25T18:33:36;4.53;;;2.23;;
78072;SDS011;67281;48.770;11.440;2023-02-25T18:36:04;2.93;;;1.90;;
78072;SDS011;67281;48.770;11.440;2023-02-25T18:38:32;3.30;;;2.40;;
78072;SDS011;67281;48.770;11.440;2023-02-25T18:41:03;3.30;;;2.50;;
78072;SDS011;67281;48.770;11.440;2023-02-25T18:43:34;2.30;;;2.03;;
78072;SDS011;67281;48.770;11.440;2023-02-25T18:46:05;2.67;;;2.30;;
78072;SDS011;67281;48.770;11.440;2023-02-25T18:48:32;2.93;;;2.40;;
78072;SDS011;67281;48.770;11.440;2023-02-25T18:51:01;3.00;;;2.30;;
78072;SDS011;67281;48.770;11.440;2023-02-25T18:53:31;3.40;;;2.40;;